Caldas1b

Aeropuertos (Informe METAR)


LPPT - Lisboa
Distancia de la estacíon: SSE 78km
Actualización: 05/03/2024 06:00
Pocas Nubes
Pocas Nubes
 Viento del ONO
Viento: ONO 6 km/h
Temperatura: 10°C
Pt. Rocío: 9°C
Humedad: 94%
Barómetro: 1025 hPa
Nubes: Pocas Nubes
Visibilidad: 10 km
Nubosidad: Pocas Nubes 1463 m
2024/03/05 06:00 LPPT 050600Z 29003KT 9999 FEW048 10/09 Q1025
LPPR - Porto
Distancia de la estacíon: NO 205km
Actualización: 05/03/2024 06:00
Parc. nuboso
Parc. nuboso
 Viento del calm
Viento: Calma
Temperatura: 8°C
Pt. Rocío: 7°C
Humedad: 93%
Barómetro: 1024 hPa
Nubes: Parc. nuboso
Visibilidad: 10 km
Nubosidad: Pocas Nubes 1067 m
Parc. nuboso 1372 m
2024/03/05 06:00 LPPR 050600Z 00000KT 9999 FEW035 SCT045 08/07 Q1024
 
LPFR - Faro
Distancia de la estacíon: SE 286km
Actualización: 05/03/2024 06:00
Despejado
Despejado
 Viento del ONO
Viento: ONO 7 km/h
Temperatura: 7°C
Índice de Frío: 6°C
Pt. Rocío: 5°C
Humedad: 87%
Barómetro: 1025 hPa
Resumen: Despejado
Visibilidad: más que 10 km
2024/03/05 06:00 LPFR 050600Z 30004KT CAVOK 07/05 Q1025
LPBJ - Beja
Distancia de la estacíon: ESE 190km
Actualización: 05/03/2024 06:00
Patches of fog, Parc. nuboso
Patches of fog, Parc. nuboso
 Viento del O
Viento: O 4 km/h
Temperatura: 6°C
Pt. Rocío: 6°C
Humedad: 100%
Barómetro: 1025 hPa
Resumen: Patches of Fog
Nubes: Parc. nuboso
Visibilidad: 4 km
2024/03/05 06:00 LPBJ 050600Z 27002KT 4000 1500S BCFG NSC 06/06 Q1025
 
LPMA - Funchal
Distancia de la estacíon: SSO 1025km
Actualización: 05/03/2024 05:30
Muy nuboso
Muy nuboso
 Viento del N
Viento: N 19 km/h
Temperatura: 16°C
Pt. Rocío: 14°C
Humedad: 88%
Barómetro: 1024 hPa
Nubes: Muy nuboso
Visibilidad: 10 km
Nubosidad: Muy nuboso 457 m
2024/03/05 05:30 LPMA 050530Z 01010KT 9999 BKN015 16/14 Q1024
LPPD - Ponta Delgada
Distancia de la estacíon: O 1450km
Actualización: 05/03/2024 06:00
Muy nuboso
Muy nuboso
 Viento del SO
Viento: SO 15 km/h
Temperatura: 14°C
Pt. Rocío: 6°C
Humedad: 59%
Barómetro: 1025 hPa
Nubes: Muy nuboso
Visibilidad: 10 km
Nubosidad: Pocas Nubes 762 m
Muy nuboso 1372 m
2024/03/05 06:00 LPPD 050600Z 22008KT 9999 FEW025 BKN045 14/06 Q1025
 
LPCS - Cascais
Distancia de la estacíon: SSO 77km
Actualización: 04/03/2024 19:00
NOT Current
Pocas Nubes
Pocas Nubes
 Viento del NO
Viento: NO 9 km/h
Temperatura: 12°C
Pt. Rocío: 7°C
Humedad: 72%
Barómetro: 1023 hPa
Nubes: Pocas Nubes
Visibilidad: 10 km
Nubosidad: Pocas Nubes 671 m
2024/03/04 19:00 LPCS 041900Z 31005KT 9999 FEW022 12/07 Q1023
LPMR - Monte Real
Distancia de la estacíon: N 55km
Actualización: 05/03/2024 01:00
NOT Current
Pocas Nubes
Pocas Nubes
 Viento del O
Viento: O 6 km/h
Temperatura: 11°C
Pt. Rocío: 9°C
Humedad: 88%
Barómetro: 1024 hPa
Nubes: Pocas Nubes
Visibilidad: 10 km
Nubosidad: Pocas Nubes 671 m
2024/03/05 01:00 LPMR 050100Z 27003KT 9999 FEW022 11/09 Q1024

Phoenix Radar Flight Tracking

Map courtesy of flightradar24.com